Time;durP1;ratioP1;P1;durP2;ratioP2;P2;SDS_P1;SDS_P2;PMS_P1;PMS_P2;Temp;Humidity;BMP_temperature;BMP_pressure;BME280_temperature;BME280_humidity;BME280_pressure;Samples;Min_cycle;Max_cycle;Signal;HPM_P1;HPM_P2
2023/10/11 00:00:34;;;;;;;17.90;7.15;;;13.80;63.90;;;;;;5053846;28;20059;-74
2023/10/11 00:05:40;;;;;;;19.92;7.55;;;13.70;64.50;;;;;;5053763;28;20043;-76
2023/10/11 00:08:12;;;;;;;14.02;6.68;;;13.70;64.80;;;;;;5053791;28;20397;-75
2023/10/11 00:10:44;;;;;;;19.02;7.43;;;13.70;64.80;;;;;;5053481;28;20024;-73
2023/10/11 00:13:11;;;;;;;14.48;6.95;;;13.70;64.70;;;;;;5053865;28;20029;-74
2023/10/11 00:15:37;;;;;;;16.08;7.22;;;13.70;64.60;;;;;;5053735;28;20024;-75
2023/10/11 00:18:02;;;;;;;14.77;7.65;;;13.70;64.70;;;;;;5053525;28;20017;-75
2023/10/11 00:20:31;;;;;;;16.40;6.38;;;13.60;64.70;;;;;;5053648;28;20528;-75
2023/10/11 00:22:57;;;;;;;11.60;6.22;;;13.70;64.70;;;;;;5035798;28;20024;-73
2023/10/11 00:25:27;;;;;;;15.23;6.82;;;13.70;64.80;;;;;;5035965;28;20076;-83
2023/10/11 00:27:53;;;;;;;16.85;7.13;;;13.70;64.60;;;;;;5053657;28;20025;-72
2023/10/11 00:30:21;;;;;;;15.73;6.72;;;13.60;64.60;;;;;;5053330;28;20025;-74
2023/10/11 00:32:46;;;;;;;15.30;6.55;;;13.60;65.80;;;;;;5035402;28;20064;-76
2023/10/11 00:35:18;;;;;;;20.48;7.55;;;13.50;65.40;;;;;;5053210;28;20052;-75
2023/10/11 00:37:49;;;;;;;15.13;6.75;;;13.50;65.50;;;;;;5053339;28;20040;-73
2023/10/11 00:40:25;;;;;;;12.70;6.60;;;13.60;65.20;;;;;;5053204;28;20071;-74
2023/10/11 00:42:56;;;;;;;15.98;6.53;;;13.60;65.10;;;;;;5053395;28;20043;-74
2023/10/11 00:45:23;;;;;;;17.95;7.13;;;13.60;65.20;;;;;;5035230;28;20096;-71
2023/10/11 00:47:51;;;;;;;15.50;7.18;;;13.50;65.40;;;;;;5053437;28;20020;-80
2023/10/11 00:50:17;;;;;;;17.00;6.75;;;13.50;65.40;;;;;;5053442;28;20445;-73
2023/10/11 00:52:45;;;;;;;18.40;6.68;;;13.50;65.40;;;;;;5052944;28;20389;-71
2023/10/11 00:55:23;;;;;;;17.63;6.45;;;13.50;65.50;;;;;;5052429;28;20025;-76
2023/10/11 00:57:49;;;;;;;18.70;6.95;;;13.50;65.70;;;;;;5053393;28;20424;-76
2023/10/11 01:00:17;;;;;;;18.92;6.88;;;13.40;65.90;;;;;;5053402;28;20021;-72
2023/10/11 01:02:46;;;;;;;17.15;6.88;;;13.30;66.50;;;;;;5052750;28;20047;-71
2023/10/11 01:05:12;;;;;;;18.25;6.72;;;13.30;66.60;;;;;;5032340;28;20024;-84
2023/10/11 01:07:39;;;;;;;15.48;6.32;;;13.30;66.70;;;;;;5038474;28;20078;-71
2023/10/11 01:10:08;;;;;;;14.27;7.07;;;13.20;66.80;;;;;;5040299;28;20489;-73
2023/10/11 01:12:34;;;;;;;14.68;6.28;;;13.20;67.30;;;;;;5025855;28;20110;-72
2023/10/11 01:15:00;;;;;;;14.02;6.63;;;13.10;67.70;;;;;;5045876;28;20519;-87
2023/10/11 01:17:27;;;;;;;15.55;5.88;;;13.10;67.50;;;;;;5042272;28;20048;-71
2023/10/11 01:19:53;;;;;;;17.65;6.25;;;13.10;67.70;;;;;;5041398;28;20020;-72
2023/10/11 01:22:19;;;;;;;16.85;6.97;;;13.10;67.70;;;;;;5061505;28;20094;-70
2023/10/11 01:24:48;;;;;;;14.60;6.70;;;13.10;67.80;;;;;;5043694;28;20446;-75
2023/10/11 01:27:16;;;;;;;14.10;6.25;;;13.10;67.80;;;;;;5043763;28;20051;-72
2023/10/11 01:29:43;;;;;;;17.42;6.95;;;13.10;67.80;;;;;;5042838;28;20083;-75
2023/10/11 01:32:09;;;;;;;14.25;6.53;;;13.10;67.90;;;;;;5042450;28;20022;-84
2023/10/11 01:34:35;;;;;;;12.90;6.43;;;13.00;68.00;;;;;;5042491;28;20067;-76
2023/10/11 01:37:01;;;;;;;18.25;6.65;;;13.00;67.90;;;;;;5024824;28;20029;-78
2023/10/11 01:39:27;;;;;;;15.68;6.85;;;13.00;67.80;;;;;;5046497;28;20520;-73
2023/10/11 01:41:58;;;;;;;19.50;6.93;;;13.00;67.80;;;;;;5023152;28;20112;-71
2023/10/11 01:44:24;;;;;;;15.85;6.53;;;13.10;67.50;;;;;;5042207;28;20017;-76
2023/10/11 01:46:50;;;;;;;17.90;7.18;;;13.10;67.60;;;;;;5040900;28;20040;-72
2023/10/11 01:49:15;;;;;;;17.63;7.00;;;13.00;67.60;;;;;;5052453;28;20033;-71
2023/10/11 01:51:47;;;;;;;21.00;7.43;;;13.10;67.70;;;;;;5053725;28;20029;-71
2023/10/11 01:54:15;;;;;;;18.50;6.40;;;13.10;67.70;;;;;;5034990;28;20389;-72
2023/10/11 01:56:41;;;;;;;14.30;6.60;;;13.00;67.30;;;;;;5052735;28;20025;-72
2023/10/11 01:59:09;;;;;;;19.60;6.32;;;13.10;67.40;;;;;;5052743;28;20013;-73
2023/10/11 02:01:54;;;;;;;13.55;6.43;;;13.10;67.40;;;;;;5052922;28;20032;-71
2023/10/11 02:04:20;;;;;;;14.75;6.10;;;13.00;67.30;;;;;;5052000;28;20044;-71
2023/10/11 02:06:47;;;;;;;18.30;7.38;;;13.00;67.10;;;;;;5053265;28;20041;-70
2023/10/11 02:09:13;;;;;;;18.02;6.60;;;13.10;67.40;;;;;;5056410;28;20496;-75
2023/10/11 02:11:41;;;;;;;20.20;6.80;;;13.00;67.10;;;;;;5056079;28;20037;-71
2023/10/11 02:14:07;;;;;;;16.52;6.95;;;13.10;67.10;;;;;;5056017;28;20378;-72
2023/10/11 02:16:33;;;;;;;12.25;5.80;;;13.10;67.20;;;;;;5055923;28;20104;-76
2023/10/11 02:18:59;;;;;;;12.77;6.25;;;13.00;67.10;;;;;;5056013;28;20063;-76
2023/10/11 02:21:25;;;;;;;17.85;6.70;;;13.10;66.90;;;;;;5038015;28;20025;-74
2023/10/11 02:23:51;;;;;;;15.80;6.22;;;13.00;66.90;;;;;;5055967;28;20491;-75
2023/10/11 02:26:16;;;;;;;16.13;6.60;;;13.10;66.90;;;;;;5071289;28;20123;-72
2023/10/11 02:28:43;;;;;;;14.52;5.88;;;13.10;67.70;;;;;;5055840;28;20027;-72
2023/10/11 02:31:13;;;;;;;17.15;7.03;;;13.00;66.70;;;;;;5055720;28;20127;-75
2023/10/11 02:33:39;;;;;;;18.15;6.72;;;13.10;66.80;;;;;;5037760;28;20052;-74
2023/10/11 02:36:09;;;;;;;17.83;6.60;;;13.00;66.70;;;;;;5055549;28;20021;-72
2023/10/11 02:38:47;;;;;;;15.50;6.05;;;13.00;66.50;;;;;;5037598;28;20024;-72
2023/10/11 02:41:13;;;;;;;14.85;6.65;;;13.00;66.70;;;;;;5055633;28;20017;-73
2023/10/11 02:43:47;;;;;;;17.83;7.32;;;12.90;66.70;;;;;;5055369;28;20032;-71
2023/10/11 02:46:13;;;;;;;14.40;6.30;;;13.00;66.80;;;;;;5055248;28;20428;-71
2023/10/11 02:48:45;;;;;;;14.20;6.15;;;12.90;66.80;;;;;;5037564;28;20040;-71
2023/10/11 02:51:17;;;;;;;15.40;6.93;;;12.90;66.80;;;;;;5055528;28;20021;-75
2023/10/11 02:53:46;;;;;;;14.68;6.53;;;12.90;66.70;;;;;;5055306;28;20065;-71
2023/10/11 02:56:13;;;;;;;17.52;6.30;;;12.90;66.60;;;;;;5055588;28;20025;-73
2023/10/11 02:58:39;;;;;;;16.27;6.32;;;12.90;66.70;;;;;;5055938;28;20453;-72
2023/10/11 03:01:14;;;;;;;19.42;7.07;;;12.90;66.60;;;;;;5070918;28;20056;-73
2023/10/11 03:03:40;;;;;;;16.35;6.80;;;12.90;66.50;;;;;;5068656;28;20128;-71
2023/10/11 03:06:07;;;;;;;16.05;6.82;;;12.90;66.50;;;;;;5074853;28;20036;-72
2023/10/11 03:08:33;;;;;;;17.35;7.20;;;12.90;66.50;;;;;;5075321;28;20027;-75
2023/10/11 03:10:59;;;;;;;17.88;6.97;;;12.90;66.40;;;;;;5075085;28;20032;-72
2023/10/11 03:13:41;;;;;;;13.45;6.75;;;12.90;66.50;;;;;;5090643;28;20025;-74
2023/10/11 03:16:11;;;;;;;14.10;6.25;;;12.80;66.40;;;;;;5074728;28;20063;-74
2023/10/11 03:18:39;;;;;;;20.80;6.75;;;12.80;66.30;;;;;;5073994;28;20020;-72
2023/10/11 03:21:17;;;;;;;16.40;6.95;;;12.80;66.30;;;;;;5074988;28;20027;-71
2023/10/11 03:23:44;;;;;;;15.52;6.43;;;12.80;66.50;;;;;;5074975;28;20020;-73
2023/10/11 03:26:31;;;;;;;17.65;7.20;;;12.70;66.50;;;;;;5073257;28;20052;-72
2023/10/11 03:29:05;;;;;;;17.27;6.18;;;12.70;66.30;;;;;;5075540;28;20353;-78
2023/10/11 03:31:40;;;;;;;22.27;6.82;;;12.70;66.30;;;;;;5061603;28;20060;-71
2023/10/11 03:34:14;;;;;;;14.70;7.20;;;12.80;66.10;;;;;;5060826;28;20435;-75
2023/10/11 03:36:49;;;;;;;16.23;6.65;;;12.80;66.20;;;;;;5077021;28;20445;-77
2023/10/11 03:42:14;;;;;;;17.75;6.68;;;12.70;66.10;;;;;;5077891;28;20021;-80
2023/10/11 03:44:44;;;;;;;19.77;7.05;;;12.70;66.00;;;;;;5060567;28;20106;-72
2023/10/11 03:47:14;;;;;;;17.23;6.40;;;12.70;66.00;;;;;;5086001;28;20040;-73
2023/10/11 03:55:10;;;;;;;20.10;6.70;;;12.70;65.80;;;;;;5065251;28;20039;-72
2023/10/11 03:57:41;;;;;;;13.77;6.18;;;12.70;65.80;;;;;;5073907;28;20029;-72
2023/10/11 04:00:46;;;;;;;17.42;7.10;;;12.70;65.60;;;;;;5073969;28;20024;-72
2023/10/11 04:03:05;;;;;;;16.00;6.28;;;12.70;65.50;;;;;;5071482;28;20510;-76
2023/10/11 04:05:40;;;;;;;11.35;6.05;;;12.70;65.50;;;;;;5073646;28;20078;-71
2023/10/11 04:08:08;;;;;;;15.35;6.40;;;12.70;65.50;;;;;;5073805;28;20465;-72
2023/10/11 04:10:43;;;;;;;14.95;6.80;;;12.60;65.30;;;;;;5073979;28;20029;-71
2023/10/11 04:13:14;;;;;;;19.17;6.85;;;12.60;65.60;;;;;;5074318;28;20098;-79
2023/10/11 04:15:40;;;;;;;17.10;6.40;;;12.50;65.80;;;;;;5074280;28;20468;-74
2023/10/11 04:18:20;;;;;;;13.13;5.78;;;12.60;65.60;;;;;;5074550;28;20028;-76
2023/10/11 04:20:59;;;;;;;24.40;7.68;;;12.60;65.60;;;;;;5075892;28;20020;-86
2023/10/11 04:23:27;;;;;;;17.80;6.95;;;12.50;65.70;;;;;;5077518;28;20438;-71
2023/10/11 04:25:55;;;;;;;22.50;6.18;;;12.50;65.70;;;;;;5074484;28;20021;-84
2023/10/11 04:28:23;;;;;;;17.92;6.97;;;12.60;65.50;;;;;;5055221;28;20123;-71
2023/10/11 04:30:53;;;;;;;15.48;5.63;;;12.50;65.10;;;;;;5073758;28;20023;-71
2023/10/11 04:33:22;;;;;;;19.05;6.82;;;12.60;65.00;;;;;;5073488;28;20108;-77
2023/10/11 04:35:56;;;;;;;18.60;6.95;;;12.60;64.80;;;;;;5073278;28;20373;-73
2023/10/11 04:38:21;;;;;;;18.15;6.70;;;12.60;64.50;;;;;;5073104;28;20622;-72
2023/10/11 04:40:54;;;;;;;16.80;6.30;;;12.70;64.30;;;;;;5073483;28;20036;-72
2023/10/11 04:43:29;;;;;;;15.77;5.65;;;12.70;64.20;;;;;;5073348;28;20116;-84
2023/10/11 04:45:59;;;;;;;16.33;6.85;;;12.70;63.60;;;;;;5055661;28;20028;-75
2023/10/11 04:48:30;;;;;;;15.82;6.60;;;12.70;63.30;;;;;;5073873;28;20028;-76
2023/10/11 05:04:27;;;;;;;21.63;6.47;;;12.60;63.60;;;;;;5075236;28;20055;-83
2023/10/11 05:06:54;;;;;;;22.20;6.32;;;12.60;63.90;;;;;;5078089;28;20025;-83
2023/10/11 05:11:57;;;;;;;20.77;6.95;;;12.50;64.10;;;;;;5076921;28;20060;-87
2023/10/11 05:14:28;;;;;;;15.82;6.97;;;12.50;64.10;;;;;;5076840;28;20032;-88
2023/10/11 05:19:40;;;;;;;20.88;7.30;;;12.40;64.20;;;;;;5074784;28;20021;-85
2023/10/11 05:22:08;;;;;;;19.75;7.30;;;12.40;64.30;;;;;;5076474;28;20388;-88
2023/10/11 05:27:25;;;;;;;22.27;7.13;;;12.40;64.20;;;;;;5073930;28;20033;-89
2023/10/11 05:32:42;;;;;;;21.15;7.18;;;12.40;63.90;;;;;;5075647;28;20453;-88
2023/10/11 05:51:21;;;;;;;26.02;7.00;;;12.50;63.80;;;;;;5077475;28;20043;-71
2023/10/11 05:53:50;;;;;;;21.13;7.10;;;12.50;63.90;;;;;;5077274;28;20025;-71
2023/10/11 05:56:22;;;;;;;28.75;7.30;;;12.50;63.80;;;;;;5076601;28;20035;-71
2023/10/11 05:58:52;;;;;;;22.98;6.80;;;12.50;63.90;;;;;;5076359;28;20449;-72
2023/10/11 06:01:22;;;;;;;17.30;7.18;;;12.60;63.70;;;;;;5075995;28;20038;-73
2023/10/11 06:03:51;;;;;;;18.92;6.78;;;12.50;63.90;;;;;;5076088;28;20396;-74
2023/10/11 06:08:51;;;;;;;19.00;7.00;;;12.60;64.00;;;;;;5076012;28;20044;-72
2023/10/11 06:11:18;;;;;;;20.67;7.22;;;12.60;63.90;;;;;;5075994;28;20473;-74
2023/10/11 06:13:44;;;;;;;16.60;7.25;;;12.60;64.00;;;;;;5076019;28;20488;-72
2023/10/11 06:16:14;;;;;;;18.10;6.90;;;12.60;64.00;;;;;;5075851;28;20211;-72
2023/10/11 06:18:42;;;;;;;24.88;7.63;;;12.60;63.90;;;;;;5091206;28;20025;-72
2023/10/11 06:21:30;;;;;;;20.48;7.03;;;12.70;64.00;;;;;;5057842;28;20055;-71
2023/10/11 06:24:05;;;;;;;23.15;6.70;;;12.70;64.20;;;;;;5075839;28;20024;-72
2023/10/11 06:29:03;;;;;;;19.80;6.88;;;12.80;64.00;;;;;;5076120;28;20028;-71
2023/10/11 06:31:43;;;;;;;20.73;6.75;;;12.90;63.80;;;;;;5091265;28;20162;-71
2023/10/11 06:34:26;;;;;;;25.05;7.75;;;13.00;63.30;;;;;;5075910;28;20013;-71
2023/10/11 06:36:53;;;;;;;20.75;6.90;;;13.00;63.10;;;;;;5075861;28;20025;-71
2023/10/11 06:40:07;;;;;;;23.95;7.03;;;13.10;62.80;;;;;;5057551;28;20037;-72
2023/10/11 06:45:01;;;;;;;17.20;7.00;;;13.30;62.20;;;;;;5077244;28;20055;-73
2023/10/11 06:47:33;;;;;;;21.17;7.45;;;13.40;61.60;;;;;;5075602;28;20112;-72
2023/10/11 06:49:59;;;;;;;21.30;6.68;;;13.50;61.60;;;;;;5074769;28;20032;-72
2023/10/11 06:52:30;;;;;;;20.85;6.63;;;13.60;61.70;;;;;;5075457;28;20029;-75
2023/10/11 06:57:40;;;;;;;16.40;6.68;;;13.80;61.30;;;;;;5077082;28;20537;-72
2023/10/11 07:02:52;;;;;;;27.55;7.80;;;14.00;61.10;;;;;;5075866;28;20377;-81
2023/10/11 07:05:20;;;;;;;16.00;6.18;;;14.10;62.00;;;;;;5075157;28;20110;-72
2023/10/11 07:07:49;;;;;;;18.80;6.28;;;14.20;61.00;;;;;;5075142;28;20033;-74
2023/10/11 07:10:32;;;;;;;19.15;6.70;;;14.30;61.00;;;;;;5075268;28;20603;-78
2023/10/11 07:13:05;;;;;;;13.60;6.25;;;14.50;61.20;;;;;;5075929;28;20134;-73
2023/10/11 07:15:37;;;;;;;30.75;8.75;;;14.60;60.90;;;;;;5076394;28;20020;-74
2023/10/11 07:18:08;;;;;;;18.67;6.82;;;14.70;67.90;;;;;;5074786;28;20024;-78
2023/10/11 07:23:20;;;;;;;14.05;6.25;;;15.20;60.60;;;;;;5074587;28;20043;-76
2023/10/11 07:25:49;;;;;;;15.55;5.60;;;15.30;59.80;;;;;;5056574;28;20025;-75
2023/10/11 07:28:35;;;;;;;18.40;6.63;;;15.40;59.40;;;;;;5074672;28;20381;-75
2023/10/11 07:31:03;;;;;;;21.92;6.15;;;15.50;59.20;;;;;;5057071;28;20074;-75
2023/10/11 07:33:29;;;;;;;23.83;6.70;;;15.70;59.30;;;;;;5073657;28;20029;-74
2023/10/11 07:35:55;;;;;;;22.92;6.28;;;15.80;59.00;;;;;;5074183;28;20031;-75
2023/10/11 07:38:21;;;;;;;14.27;6.60;;;16.00;58.70;;;;;;5074388;28;20028;-78
2023/10/11 07:40:52;;;;;;;22.23;7.40;;;16.10;58.90;;;;;;5074456;28;20087;-76
2023/10/11 07:43:18;;;;;;;20.17;7.72;;;16.40;58.20;;;;;;5074316;28;20024;-75
2023/10/11 07:45:47;;;;;;;17.80;6.85;;;16.40;57.30;;;;;;5074037;28;20024;-76
2023/10/11 07:48:16;;;;;;;18.15;6.53;;;16.60;57.20;;;;;;5074333;28;20036;-76
2023/10/11 07:50:42;;;;;;;19.80;6.40;;;16.70;57.10;;;;;;5074015;28;20024;-78
2023/10/11 07:53:13;;;;;;;28.58;7.38;;;16.80;56.80;;;;;;5073931;28;20024;-73
2023/10/11 07:55:40;;;;;;;21.13;7.05;;;16.90;56.70;;;;;;5073658;28;20543;-77
2023/10/11 07:58:08;;;;;;;17.73;6.85;;;17.10;56.60;;;;;;5055661;28;20024;-76
2023/10/11 08:00:40;;;;;;;23.15;7.10;;;17.20;56.40;;;;;;5074140;28;20357;-73
2023/10/11 08:03:06;;;;;;;19.23;6.95;;;17.40;56.30;;;;;;5073456;28;20044;-74
2023/10/11 08:05:44;;;;;;;16.90;6.93;;;17.50;55.40;;;;;;5072941;28;20031;-73
2023/10/11 08:08:13;;;;;;;23.20;7.40;;;17.60;54.80;;;;;;5076110;28;20066;-73
2023/10/11 08:10:44;;;;;;;17.90;6.45;;;17.80;54.70;;;;;;5073865;28;20373;-72
2023/10/11 08:13:25;;;;;;;20.20;6.70;;;17.90;54.30;;;;;;5078551;28;20044;-76
2023/10/11 08:15:57;;;;;;;18.08;6.97;;;18.10;54.30;;;;;;5073785;28;20064;-77
2023/10/11 08:18:23;;;;;;;18.23;6.70;;;18.30;54.10;;;;;;5073515;28;20448;-77
2023/10/11 08:20:48;;;;;;;22.45;7.22;;;18.50;53.90;;;;;;5088941;28;20063;-77
2023/10/11 08:23:28;;;;;;;14.23;6.65;;;18.70;53.10;;;;;;5073182;28;20081;-76
2023/10/11 08:25:57;;;;;;;18.35;6.15;;;18.90;53.20;;;;;;5073459;28;20112;-75
2023/10/11 08:28:29;;;;;;;23.15;6.97;;;19.10;52.60;;;;;;5055338;28;20517;-76
2023/10/11 08:30:59;;;;;;;16.42;6.30;;;19.30;51.40;;;;;;5073217;28;20306;-76
2023/10/11 08:33:25;;;;;;;19.67;7.07;;;19.50;51.40;;;;;;5072919;28;20058;-73
2023/10/11 08:35:53;;;;;;;14.80;5.95;;;19.70;50.90;;;;;;5073278;28;20395;-76
2023/10/11 08:38:19;;;;;;;24.10;7.55;;;19.80;50.30;;;;;;5073205;28;20028;-73
2023/10/11 08:40:50;;;;;;;25.02;6.78;;;20.00;49.50;;;;;;5073324;28;20130;-78
2023/10/11 08:43:16;;;;;;;30.42;6.57;;;20.20;49.40;;;;;;5073342;28;20025;-77
2023/10/11 08:45:49;;;;;;;13.65;5.70;;;20.30;49.40;;;;;;5055592;28;20421;-78
2023/10/11 08:48:15;;;;;;;18.13;6.10;;;20.50;49.10;;;;;;5071918;28;20032;-79
2023/10/11 08:50:51;;;;;;;21.52;6.15;;;20.70;48.20;;;;;;5055267;28;20491;-77
2023/10/11 08:53:22;;;;;;;16.85;6.28;;;20.80;48.50;;;;;;5072681;28;20107;-79
2023/10/11 08:55:56;;;;;;;10.65;5.28;;;21.10;47.60;;;;;;5047010;28;20396;-78
2023/10/11 08:58:28;;;;;;;13.45;5.30;;;21.20;46.80;;;;;;5035423;28;20036;-70
2023/10/11 09:00:55;;;;;;;20.30;5.93;;;21.40;46.60;;;;;;5053300;28;20362;-79
2023/10/11 09:03:26;;;;;;;16.58;6.47;;;21.60;45.60;;;;;;5041589;28;20053;-71
2023/10/11 09:05:58;;;;;;;16.83;6.32;;;21.80;45.30;;;;;;5032827;28;20101;-71
2023/10/11 09:08:32;;;;;;;15.32;5.88;;;22.10;45.60;;;;;;5032821;28;20052;-71
2023/10/11 09:11:11;;;;;;;13.77;5.63;;;22.30;45.00;;;;;;5033105;28;20366;-73
2023/10/11 09:13:38;;;;;;;13.10;5.07;;;22.50;44.90;;;;;;5032873;28;20428;-75
2023/10/11 09:16:13;;;;;;;18.05;5.80;;;22.80;44.50;;;;;;5032431;28;20094;-78
2023/10/11 09:18:41;;;;;;;16.60;5.53;;;22.90;43.60;;;;;;5033158;28;20030;-76
2023/10/11 09:21:17;;;;;;;12.38;4.78;;;23.20;42.50;;;;;;5033003;28;20388;-79
2023/10/11 09:23:47;;;;;;;16.08;4.82;;;23.40;41.00;;;;;;5032760;28;20036;-79
2023/10/11 09:26:34;;;;;;;15.48;5.38;;;23.50;39.30;;;;;;5032850;28;20033;-79
2023/10/11 09:29:03;;;;;;;13.73;4.97;;;23.70;35.90;;;;;;5035714;28;20025;-78
2023/10/11 09:31:33;;;;;;;15.43;4.55;;;23.90;35.00;;;;;;5033094;28;20025;-80
2023/10/11 09:34:07;;;;;;;12.50;4.93;;;24.00;34.10;;;;;;5033013;28;20021;-78
2023/10/11 09:36:33;;;;;;;9.97;4.50;;;24.10;33.40;;;;;;5032705;28;20028;-76
2023/10/11 09:39:02;;;;;;;15.93;4.80;;;24.20;32.50;;;;;;5032598;28;20319;-77
2023/10/11 09:41:38;;;;;;;16.60;4.18;;;24.30;31.50;;;;;;5032944;28;20033;-77
2023/10/11 09:44:11;;;;;;;19.42;4.55;;;24.40;30.50;;;;;;5032739;28;20030;-78
2023/10/11 09:46:37;;;;;;;16.20;4.07;;;24.50;31.10;;;;;;5014770;28;20104;-77
2023/10/11 09:49:04;;;;;;;12.10;4.53;;;24.60;25.80;;;;;;5014797;28;20465;-77
2023/10/11 09:51:31;;;;;;;16.08;4.10;;;24.50;25.20;;;;;;5032535;28;20478;-77
2023/10/11 09:54:05;;;;;;;15.55;4.70;;;24.50;26.80;;;;;;5032600;28;20021;-77
2023/10/11 09:56:54;;;;;;;14.18;4.18;;;24.50;26.80;;;;;;5032600;28;20022;-76
2023/10/11 09:59:26;;;;;;;15.45;3.78;;;24.60;24.70;;;;;;5032320;28;20465;-77
2023/10/11 10:02:16;;;;;;;15.13;4.55;;;24.70;25.80;;;;;;5032203;28;20544;-77
2023/10/11 10:05:05;;;;;;;15.30;4.68;;;24.70;25.50;;;;;;5052475;28;20086;-79
2023/10/11 10:07:44;;;;;;;15.95;4.15;;;24.70;24.60;;;;;;5039775;28;20404;-79
2023/10/11 10:10:26;;;;;;;11.77;4.55;;;24.80;25.00;;;;;;5034853;28;20562;-78
2023/10/11 10:12:58;;;;;;;11.63;4.13;;;24.90;25.00;;;;;;5034613;28;20033;-79
2023/10/11 10:15:32;;;;;;;12.50;4.38;;;25.10;26.40;;;;;;5052749;28;20028;-81
2023/10/11 10:18:12;;;;;;;10.75;3.78;;;25.00;26.90;;;;;;5052616;28;20052;-76
2023/10/11 10:20:41;;;;;;;10.75;3.85;;;25.20;27.70;;;;;;5034592;28;20382;-78
2023/10/11 10:23:16;;;;;;;21.58;5.15;;;25.40;25.90;;;;;;5034300;28;20021;-77
2023/10/11 10:25:48;;;;;;;16.75;4.60;;;25.30;25.50;;;;;;5034325;28;20052;-74
2023/10/11 10:28:32;;;;;;;16.90;4.50;;;25.10;25.90;;;;;;5053656;28;20047;-77
2023/10/11 10:31:11;;;;;;;15.10;4.10;;;25.20;24.60;;;;;;5038485;28;20021;-81
2023/10/11 10:33:38;;;;;;;13.45;4.03;;;25.30;23.10;;;;;;5055927;28;20047;-78
2023/10/11 10:36:21;;;;;;;14.95;4.75;;;25.40;25.20;;;;;;5037934;28;20051;-78
2023/10/11 10:42:03;;;;;;;11.82;4.03;;;25.40;25.80;;;;;;5042867;28;20037;-76
2023/10/11 10:44:31;;;;;;;12.30;3.60;;;25.50;25.60;;;;;;5055825;28;20075;-76
2023/10/11 10:46:59;;;;;;;9.48;4.07;;;25.80;25.90;;;;;;5037531;28;20029;-77
2023/10/11 10:49:51;;;;;;;21.25;4.75;;;26.10;24.70;;;;;;5037761;28;20056;-77
2023/10/11 10:52:24;;;;;;;10.43;4.03;;;26.30;25.50;;;;;;5038170;28;20053;-76
2023/10/11 10:55:04;;;;;;;15.25;4.35;;;26.30;23.90;;;;;;5054815;28;20480;-76
2023/10/11 10:57:32;;;;;;;13.20;4.13;;;26.30;24.20;;;;;;5037652;28;20068;-75
2023/10/11 11:00:05;;;;;;;11.23;3.97;;;26.40;24.40;;;;;;5037516;28;20065;-77
2023/10/11 11:02:37;;;;;;;14.52;4.50;;;26.50;23.80;;;;;;5039144;28;20041;-79
2023/10/11 11:05:13;;;;;;;15.32;4.18;;;26.60;24.00;;;;;;5038429;28;20025;-74
2023/10/11 11:07:47;;;;;;;9.43;3.95;;;26.70;24.10;;;;;;5054765;28;20453;-78
2023/10/11 11:10:20;;;;;;;15.13;4.35;;;26.90;23.50;;;;;;5037068;28;20086;-74
2023/10/11 11:12:49;;;;;;;13.32;3.97;;;27.10;23.90;;;;;;5054581;28;20032;-78
2023/10/11 11:15:21;;;;;;;10.80;3.80;;;27.30;23.70;;;;;;5055043;28;20033;-76
2023/10/11 11:17:50;;;;;;;14.02;4.60;;;27.40;22.50;;;;;;5037027;28;20059;-75
2023/10/11 11:20:40;;;;;;;11.25;4.53;;;27.50;22.80;;;;;;5054556;28;20068;-75
2023/10/11 11:23:04;;;;;;;13.13;4.18;;;27.60;23.50;;;;;;5054197;28;20393;-75
2023/10/11 11:25:30;;;;;;;13.35;4.47;;;27.80;22.60;;;;;;5036742;28;20043;-78
2023/10/11 11:28:18;;;;;;;11.93;4.28;;;27.50;23.00;;;;;;5054707;28;20033;-73
2023/10/11 11:31:13;;;;;;;17.08;4.30;;;27.20;24.30;;;;;;5045821;28;20052;-78
2023/10/11 11:33:55;;;;;;;15.65;3.97;;;27.30;24.80;;;;;;5075645;28;20017;-75
2023/10/11 11:36:31;;;;;;;14.48;4.00;;;27.50;24.20;;;;;;5056774;28;20043;-75
2023/10/11 11:41:47;;;;;;;11.18;3.97;;;27.60;24.10;;;;;;5074274;28;20640;-77
2023/10/11 11:44:22;;;;;;;11.43;4.10;;;27.70;24.50;;;;;;5056404;28;20033;-74
2023/10/11 11:46:52;;;;;;;10.18;4.20;;;27.70;24.50;;;;;;5074222;28;20045;-72
2023/10/11 11:49:21;;;;;;;10.98;4.13;;;28.10;24.20;;;;;;5074422;28;20024;-75
2023/10/11 11:51:52;;;;;;;10.77;4.10;;;28.60;23.60;;;;;;5075391;28;20021;-77
2023/10/11 11:54:19;;;;;;;13.10;4.07;;;28.70;22.60;;;;;;5073715;28;20048;-74
2023/10/11 11:56:45;;;;;;;12.70;4.32;;;28.60;23.40;;;;;;5073240;28;20376;-74
2023/10/11 11:59:18;;;;;;;11.90;4.30;;;28.90;23.60;;;;;;5056024;28;20031;-76
2023/10/11 12:01:52;;;;;;;7.90;3.72;;;28.80;23.10;;;;;;5076568;28;20031;-78
2023/10/11 12:04:29;;;;;;;9.63;3.97;;;28.90;22.80;;;;;;5064963;28;20379;-77
2023/10/11 12:06:57;;;;;;;12.60;4.15;;;28.90;22.40;;;;;;5043844;28;20160;-73
2023/10/11 12:09:22;;;;;;;13.23;4.32;;;29.00;24.20;;;;;;5061552;28;20071;-73
2023/10/11 12:11:53;;;;;;;14.98;5.13;;;28.70;23.40;;;;;;5063882;28;20104;-77
2023/10/11 12:14:22;;;;;;;11.80;3.88;;;28.60;24.10;;;;;;5064356;28;20485;-74
2023/10/11 12:16:48;;;;;;;10.15;4.30;;;28.40;25.50;;;;;;5068062;28;20044;-76
2023/10/11 12:19:15;;;;;;;12.00;4.43;;;28.90;23.60;;;;;;5063238;28;20016;-75
2023/10/11 12:21:41;;;;;;;15.15;4.68;;;29.40;23.10;;;;;;5063973;28;20419;-73
2023/10/11 12:24:12;;;;;;;11.95;4.10;;;29.80;22.00;;;;;;5062132;28;20021;-74
2023/10/11 12:26:41;;;;;;;9.48;4.32;;;30.00;23.50;;;;;;5061426;28;20028;-75
2023/10/11 12:29:12;;;;;;;11.02;4.00;;;30.20;21.50;;;;;;5059728;28;20453;-74
2023/10/11 12:31:41;;;;;;;13.80;4.00;;;30.40;21.00;;;;;;5062133;28;20020;-76
2023/10/11 12:34:11;;;;;;;7.50;4.07;;;30.00;21.80;;;;;;5058604;28;20017;-74
2023/10/11 12:36:41;;;;;;;14.60;4.50;;;29.80;22.30;;;;;;5045314;28;20048;-73
2023/10/11 12:39:08;;;;;;;12.95;3.95;;;30.10;22.10;;;;;;5059243;28;20108;-78
2023/10/11 12:41:36;;;;;;;6.85;3.72;;;30.30;21.80;;;;;;5062559;28;20025;-74
2023/10/11 12:44:03;;;;;;;20.55;4.10;;;30.30;19.80;;;;;;5063534;28;20017;-73
2023/10/11 12:46:29;;;;;;;11.93;3.90;;;30.20;19.60;;;;;;5062393;28;20029;-74
2023/10/11 12:48:55;;;;;;;7.38;4.10;;;30.20;20.00;;;;;;5062025;28;20119;-73
2023/10/11 12:51:22;;;;;;;11.05;3.60;;;30.60;19.50;;;;;;5063384;28;20032;-77
2023/10/11 12:53:47;;;;;;;9.45;3.75;;;31.00;18.30;;;;;;5059209;28;20620;-75
2023/10/11 12:56:14;;;;;;;10.00;3.70;;;31.30;17.50;;;;;;5062268;28;20027;-72
2023/10/11 12:58:40;;;;;;;12.95;3.97;;;31.60;17.10;;;;;;5063357;28;20104;-73
2023/10/11 13:01:11;;;;;;;9.95;3.22;;;31.70;16.70;;;;;;5058215;28;20101;-76
2023/10/11 13:03:38;;;;;;;9.52;3.13;;;31.70;15.50;;;;;;5061431;28;20056;-74
2023/10/11 13:06:04;;;;;;;10.30;3.20;;;31.50;16.40;;;;;;5062584;28;20024;-73
2023/10/11 13:08:33;;;;;;;10.20;3.30;;;31.50;16.30;;;;;;5061691;28;20025;-76
2023/10/11 13:11:00;;;;;;;10.70;3.78;;;31.90;15.90;;;;;;5061756;28;20102;-73
2023/10/11 13:13:27;;;;;;;10.77;3.78;;;31.90;16.20;;;;;;5059254;28;20027;-76
2023/10/11 13:15:59;;;;;;;13.00;3.78;;;32.00;15.30;;;;;;5062599;28;20013;-73
2023/10/11 13:18:31;;;;;;;9.18;3.65;;;32.00;16.20;;;;;;5060031;28;20103;-73
2023/10/11 13:20:56;;;;;;;12.05;4.00;;;32.10;16.70;;;;;;5061375;28;20016;-77
2023/10/11 13:23:28;;;;;;;7.32;3.33;;;32.20;15.50;;;;;;5063254;28;20063;-78
2023/10/11 13:26:07;;;;;;;8.90;3.35;;;32.20;15.70;;;;;;5062750;28;20100;-74
2023/10/11 13:28:33;;;;;;;12.23;4.15;;;32.30;15.20;;;;;;5061545;28;20041;-73
2023/10/11 13:31:01;;;;;;;6.95;3.28;;;31.70;15.90;;;;;;5060631;28;20024;-73
2023/10/11 13:33:36;;;;;;;14.90;3.78;;;31.60;16.80;;;;;;5062208;28;20070;-76
2023/10/11 13:36:05;;;;;;;;;;;31.70;16.70;;;;;;5059118;28;20045;-75
2023/10/11 13:38:31;;;;;;;10.82;3.88;;;32.10;16.70;;;;;;5061658;28;19909;-72
2023/10/11 13:40:58;;;;;;;10.15;3.45;;;32.40;16.30;;;;;;5063080;28;20346;-73
2023/10/11 13:43:24;;;;;;;6.97;3.60;;;32.40;15.10;;;;;;5061144;28;20066;-74
2023/10/11 13:46:01;;;;;;;11.23;3.53;;;32.60;15.00;;;;;;5043614;28;20016;-74
2023/10/11 13:48:33;;;;;;;11.80;3.50;;;33.00;15.40;;;;;;5059693;28;20021;-73
2023/10/11 13:51:03;;;;;;;10.38;3.63;;;33.30;14.70;;;;;;5042754;28;20057;-74
2023/10/11 13:53:30;;;;;;;11.07;3.60;;;33.60;14.70;;;;;;5061948;28;20016;-73
2023/10/11 13:56:09;;;;;;;12.00;3.28;;;33.80;14.40;;;;;;5044730;28;20032;-74
2023/10/11 13:58:35;;;;;;;9.52;3.70;;;33.70;14.30;;;;;;5044669;28;20074;-73
2023/10/11 14:01:01;;;;;;;8.10;3.42;;;34.00;15.10;;;;;;5042462;28;20483;-75
2023/10/11 14:06:12;;;;;;;10.95;3.38;;;34.80;13.60;;;;;;5065063;28;20017;-74
2023/10/11 14:08:44;;;;;;;13.68;3.85;;;34.80;14.00;;;;;;5046526;28;20032;-76
2023/10/11 14:11:14;;;;;;;8.13;3.20;;;35.50;13.20;;;;;;5065534;28;20020;-75